Latest Coastal Weather Observations for Gabo Island (VIC)

IDN60701

Issued at 11:21 pm EST Sunday 5 July 2015 (issued every 10 minutes, with the page automatically refreshed every 10 minutes)

About coastal observations | Map of coastal stations | Coastal observations for NSW | Marine services | Other Formats
Station Details ID: 084016 Name: GABO ISLAND LIGHTHOUSE Lat: -37.57 Lon: 149.92 Height: 15.2 m
Data from the previous 72 hours. | See also: Recent months at Gabo Island (VIC)
Date/Time
EST
Temp

°C
Wind Pressure Rain
since 9am
mm
Weather Cloud Vis
km
Sea
Height
m
Swell
Dir
 
Speed
knots
Gust
knots
hPa Trend Height
m
Period
s
Dir
05/11:00pm 11.1 NW 6 7 1016.5 - 0.0 - - - - - - -
05/10:30pm 11.4 NW 6 7 1016.6 - 0.0 - - - - - - -
05/10:00pm 11.1 NW 6 7 1016.8 - 0.0 - - - - - - -
05/09:30pm 11.8 NW 5 6 1017.0 - 0.0 - - - - - - -
05/09:00pm 11.1 NW 6 7 1017.3 - 0.0 Fine Mostly clear 27 <0.5 3.0 - -
05/08:30pm 12.5 WNW 5 6 1017.4 - 0.0 - - - - - - -
05/08:00pm 12.2 NW 5 6 1017.6 - 0.0 - - - - - - -
05/07:30pm 11.7 NNW 6 7 1017.5 - 0.0 - - - - - - -
05/07:00pm 11.9 NNW 5 5 1017.4 - 0.0 - - - - - - -
05/06:30pm 12.9 NW 5 6 1017.4 - 0.0 - - - - - - -
05/06:00pm 14.0 SW 10 11 1017.3 - 0.0 - - - - - - -
05/05:30pm 14.2 SW 11 13 1017.1 - 0.0 - - - - - - -
05/05:00pm 14.5 SW 12 14 1016.9 - 0.0 - - - - - - -
05/04:30pm 14.6 SSW 8 11 1017.0 - 0.0 - - - - - - -
05/04:00pm 14.7 SSW 7 8 1017.0 - 0.0 - - - - - - -
05/03:30pm 15.0 S 8 9 1016.9 - 0.0 - - - - - - -
05/03:00pm 15.4 SW 5 5 1016.8 - 0.0 Fine Mostly cloudy 40 <0.5 1.0 - -
05/02:30pm 15.7 SW 4 5 1017.0 - 0.0 - - - - - - -
05/02:00pm 15.8 WSW 6 7 1017.2 - 0.0 - - - - - - -
05/01:30pm 15.8 WSW 6 8 1017.2 - 0.0 - - - - - - -
05/01:00pm 16.5 WSW 7 9 1017.5 - 0.0 - - - - - - -
05/12:30pm 16.2 WNW 6 8 1017.8 - 0.0 - - - - - - -
05/12:00pm 15.7 NW 6 8 1018.4 - 0.0 - - - - - - -
05/11:30am 14.6 NW 7 9 1018.9 - 0.0 - - - - - - -
05/11:00am 14.6 WNW 7 9 1019.3 - 0.0 - - - - - - -
05/10:30am 14.2 WNW 5 7 1019.6 - 0.0 - - - - - - -
05/10:00am 14.0 WNW 6 7 1019.8 - 0.0 - - - - - - -
05/09:30am 14.0 WNW 5 7 1019.5 - 0.0 - - - - - - -
05/09:00am 13.1 NW 7 8 1019.3 - 0.0 Fine Mostly cloudy 40 1 1.0 - -
05/08:30am 12.6 WNW 7 9 1019.3 - 0.0 - - - - - - -
05/08:00am 12.3 WNW 7 9 1019.3 - 0.0 - - - - - - -
05/07:30am 12.1 W 8 11 1019.1 - 0.0 - - - - - - -
05/07:00am 12.3 W 10 13 1018.8 - 0.0 - - - - - - -
05/06:30am 12.2 W 10 13 1018.6 - 0.0 - - - - - - -
05/06:00am 11.8 WNW 9 11 1018.5 - 0.0 - - - - - - -
05/05:30am 11.9 W 10 13 1018.4 - 0.0 - - - - - - -
05/05:00am 11.6 WNW 10 13 1018.3 - 0.0 - - - - - - -
05/04:30am 11.6 WNW 9 12 1018.3 - 0.0 - - - - - - -
05/04:00am 11.5 WNW 9 11 1018.3 - 0.0 - - - - - - -
05/03:30am 11.3 WNW 10 13 1018.3 - 0.0 - - - - - - -
05/03:00am 12.0 W 12 16 1018.5 - 0.0 Fine Mostly cloudy 40 <0.5 3.0 - -
05/02:30am 11.3 W 11 13 1018.8 - 0.0 - - - - - - -
05/02:00am 11.5 WNW 11 13 1018.8 - 0.0 - - - - - - -
05/01:30am 11.7 W 12 15 1018.9 - 0.0 - - - - - - -
05/01:00am 11.8 W 12 15 1018.9 - 0.0 - - - - - - -
05/12:30am 12.1 W 14 17 1019.1 - 0.0 - - - - - - -
05/12:00am 11.9 W 11 14 1019.4 - 0.0 - - - - - - -
 
Date/Time
EST
Temp

°C
Wind Pressure Rain
since 9am
mm
Weather Cloud Vis
km
Sea
Height
m
Swell
Dir
 
Speed
knots
Gust
knots
hPa Trend Height
m
Period
s
Dir
04/11:30pm 11.8 W 11 14 1019.5 - 0.0 - - - - - - -
04/11:00pm 11.6 W 9 12 1019.6 - 0.0 - - - - - - -
04/10:30pm 11.8 WNW 8 11 1019.6 - 0.0 - - - - - - -
04/10:00pm 11.7 WNW 7 9 1019.5 - 0.0 - - - - - - -
04/09:30pm 11.5 WNW 8 10 1019.7 - 0.0 - - - - - - -
04/09:00pm 11.8 W 7 11 1019.7 - 0.0 Fine Mostly clear 40 1 3.0 - -
04/08:30pm 11.8 WNW 7 12 1019.6 - 0.0 - - - - - - -
04/08:00pm 11.7 W 7 10 1019.6 - 0.0 - - - - - - -
04/07:30pm 12.3 W 9 11 1019.6 - 0.0 - - - - - - -
04/07:00pm 12.7 W 11 15 1019.6 - 0.0 - - - - - - -
04/06:30pm 12.9 W 11 14 1019.5 - 0.0 - - - - - - -
04/06:00pm 13.0 WSW 13 15 1019.3 - 0.0 - - - - - - -
04/05:30pm 13.1 WSW 14 18 1019.2 - 0.0 - - - - - - -
04/05:00pm 13.0 WSW 15 19 1018.9 - 0.0 - - - - - - -
04/04:30pm 13.3 WSW 17 21 1018.8 - 0.0 - - - - - - -
04/04:00pm 13.7 WSW 17 22 1018.7 - 0.0 - - - - - - -
04/03:30pm 13.8 WSW 15 19 1018.6 - 0.0 - - - - - - -
04/03:00pm 14.1 W 13 17 1018.6 - 0.0 Fine Mostly cloudy 40 <0.5 3.0 - -
04/02:30pm 14.1 W 11 17 1018.5 - 0.0 - - - - - - -
04/02:00pm 14.1 W 9 13 1018.6 - 0.0 - - - - - - -
04/01:30pm 13.7 W 7 10 1018.5 - 0.0 - - - - - - -
04/01:00pm 14.1 WNW 9 11 1018.9 - 0.0 - - - - - - -
04/12:30pm 13.6 WNW 9 11 1019.3 - 0.0 - - - - - - -
04/12:00pm 12.9 WNW 11 14 1019.8 - 0.0 - - - - - - -
04/11:30am 12.7 WNW 10 14 1020.2 - 0.0 - - - - - - -
04/11:00am 11.6 WNW 9 12 1020.7 - 0.0 - - - - - - -
04/10:30am 10.8 WNW 10 14 1021.0 - 0.0 - - - - - - -
04/10:00am 9.5 WNW 10 15 1021.1 - 0.0 - - - - - - -
04/09:30am 9.6 WNW 11 14 1021.0 - 0.0 - - - - - - -
04/09:00am 8.6 WNW 9 13 1021.1 - 0.0 Fine Partly cloudy - <0.5 3.0 - -
04/08:30am 8.0 NW 9 13 1021.1 - 0.0 - - - - - - -
04/08:00am 7.0 NW 9 13 1021.4 - 0.0 - - - - - - -
04/07:30am 6.5 NW 9 12 1021.5 - 0.0 - - - - - - -
04/07:00am 6.7 NW 9 14 1021.6 - 0.0 - - - - - - -
04/06:30am 6.8 WNW 9 11 1021.5 - 0.0 - - - - - - -
04/06:00am 7.2 WNW 8 11 1021.4 - 0.0 - - - - - - -
04/05:30am 7.0 WNW 9 12 1021.3 - 0.0 - - - - - - -
04/05:00am 7.1 WNW 9 13 1021.3 - 0.0 - - - - - - -
04/04:30am 7.0 WNW 8 11 1021.4 - 0.0 - - - - - - -
04/04:00am 6.9 WNW 10 14 1021.6 - 0.0 - - - - - - -
04/03:30am 6.8 NW 8 11 1021.9 - 0.0 - - - - - - -
04/03:00am 7.2 NW 8 12 1022.2 - 0.0 Fine Mostly clear 40 <0.5 3.0 - -
04/02:30am 7.1 NW 9 12 1022.4 - 0.0 - - - - - - -
04/02:00am 6.8 NW 9 11 1022.6 - 0.0 - - - - - - -
04/01:30am 6.5 NW 8 11 1022.8 - 0.0 - - - - - - -
04/01:00am 7.0 NW 6 9 1023.0 - 0.0 - - - - - - -
04/12:30am 7.4 WNW 6 8 1023.2 - 0.0 - - - - - - -
04/12:00am 7.2 NNW 7 9 1023.4 - 0.0 - - - - - - -
 
Date/Time
EST
Temp

°C
Wind Pressure Rain
since 9am
mm
Weather Cloud Vis
km
Sea
Height
m
Swell
Dir
 
Speed
knots
Gust
knots
hPa Trend Height
m
Period
s
Dir
03/11:30pm 7.5 NNW 8 10 1023.7 - 0.0 - - - - - - -
03/11:00pm 7.5 NNW 8 11 1024.0 - 0.0 - - - - - - -
03/10:30pm 7.7 NNW 8 11 1024.2 - 0.0 - - - - - - -
03/10:00pm 7.5 NNW 7 10 1024.4 - 0.0 - - - - - - -
03/09:30pm 7.7 NW 7 9 1024.8 - 0.0 - - - - - - -
03/09:00pm 7.7 NW 9 13 1024.9 - 0.0 Fine Mostly clear 30 1 3.0 - -
03/08:30pm 8.0 NW 9 13 1025.0 - 0.0 - - - - - - -
03/08:00pm 8.9 W 12 15 1025.0 - 0.0 - - - - - - -
03/07:30pm 9.5 W 16 19 1025.0 - 0.0 - - - - - - -
03/07:00pm 9.4 W 14 19 1024.9 - 0.0 - - - - - - -
03/06:30pm 9.1 W 14 19 1024.9 - 0.0 - - - - - - -
03/06:00pm 9.7 W 17 21 1024.6 - 0.0 - - - - - - -
03/05:30pm 9.7 WNW 12 16 1024.7 - 0.0 - - - - - - -
03/05:00pm 10.0 W 14 18 1024.6 - 0.0 - - - - - - -
03/04:30pm 10.4 W 16 20 1024.6 - 0.0 - - - - - - -
03/04:00pm 10.7 W 14 18 1024.6 - 0.0 - - - - - - -
03/03:30pm 10.9 W 12 16 1024.5 - 0.0 - - - - - - -
03/03:00pm 11.2 W 15 18 1024.3 - 0.0 Fine Mostly cloudy 30 1 3.0 - -
03/02:30pm 11.0 W 16 21 1024.2 - 0.0 - - - - - - -
03/02:00pm 11.0 W 16 22 1024.3 - 0.0 - - - - - - -
03/01:30pm 11.1 W 17 21 1024.5 - 0.0 - - - - - - -
03/01:00pm 11.8 W 17 22 1024.9 - 0.0 - - - - - - -
03/12:30pm 11.0 W 17 23 1025.2 - 0.0 - - - - - - -
03/12:00pm 10.9 W 14 23 1025.7 - 0.0 - - - - - - -
03/11:30am 10.5 W 17 21 1026.2 - 0.0 - - - - - - -
03/11:00am 10.7 W 18 22 1026.3 - 0.0 - - - - - - -
03/10:30am 9.9 W 13 21 1026.5 - 0.0 - - - - - - -
03/10:00am 9.4 WNW 12 17 1026.8 - 0.0 - - - - - - -
03/09:30am 9.5 W 18 24 1026.7 - 0.0 - - - - - - -
03/09:00am 8.5 WNW 14 19 1026.5 - 2.6 Fine Mostly cloudy 25 1 3.0 - -
03/08:30am 8.9 W 17 22 1026.2 - 2.6 - - - - - - -
03/08:00am 8.4 W 20 25 1025.9 - 2.6 - - - - - - -
03/07:30am 8.3 W 21 25 1025.5 - 2.6 - - - - - - -
03/07:00am 8.6 W 23 29 1025.0 - 2.6 - - - - - - -
03/06:30am 8.4 W 19 23 1024.8 - 2.6 - - - - - - -
03/06:00am 8.5 W 23 29 1024.6 - 2.6 - - - - - - -
03/05:30am 8.5 W 23 28 1024.1 - 2.6 - - - - - - -
03/05:00am 8.4 W 24 29 1024.1 - 2.6 - - - - - - -
03/04:30am 8.4 W 23 28 1024.2 - 2.6 - - - - - - -
03/04:00am 8.4 W 22 27 1024.1 - 2.6 - - - - - - -
03/03:30am 8.5 W 23 28 1024.1 - 2.6 - - - - - - -
03/03:00am 8.4 W 25 29 1024.2 - 2.6 Fine Mostly clear 35 1 1.0 - -
03/02:30am 8.7 W 23 29 1024.3 - 2.6 - - - - - - -
03/02:00am 8.8 W 24 30 1024.2 - 2.6 - - - - - - -
03/01:30am 9.0 W 25 30 1023.8 - 2.6 - - - - - - -
03/01:00am 9.0 W 24 29 1023.9 - 2.6 - - - - - - -
03/12:30am 8.9 W 22 27 1023.8 - 2.6 - - - - - - -
03/12:00am 8.8 W 25 29 1023.7 - 2.6 - - - - - - -
 
Date/Time
EST
Temp

°C
Wind Pressure Rain
since 9am
mm
Weather Cloud Vis
km
Sea
Height
m
Swell
Dir
 
Speed
knots
Gust
knots
hPa Trend Height
m
Period
s
Dir
02/11:30pm 8.7 W 21 28 1023.6 - 2.6 - - - - - - -

Other Formats:

Comma delimited format used in spreadsheet applications
http://www.bom.gov.au/fwo/IDN60701/IDN60701.94933.axf

JavaScript Object Notation format (JSON) in row-major order
http://www.bom.gov.au/fwo/IDN60701/IDN60701.94933.json